createdAt,value
2019-04-07T00:00:43.928Z,9.80
2019-04-07T00:03:11.787Z,9.70
2019-04-07T00:05:39.723Z,9.70
2019-04-07T00:08:07.601Z,9.70
2019-04-07T00:10:35.902Z,9.60
2019-04-07T00:13:04.018Z,9.60
2019-04-07T00:15:32.117Z,9.60
2019-04-07T00:18:00.537Z,9.60
2019-04-07T00:20:28.522Z,9.60
2019-04-07T00:22:56.426Z,9.50
2019-04-07T00:25:24.546Z,9.50
2019-04-07T00:27:53.255Z,9.60
2019-04-07T00:30:21.179Z,9.60
2019-04-07T00:32:49.241Z,9.70
2019-04-07T00:35:26.876Z,9.60
2019-04-07T00:37:46.810Z,9.60
2019-04-07T00:40:14.778Z,9.60
2019-04-07T00:42:42.897Z,9.50
2019-04-07T00:45:11.464Z,9.50
2019-04-07T00:47:39.390Z,9.30
2019-04-07T00:50:07.628Z,9.30
2019-04-07T00:52:36.045Z,9.30
2019-04-07T00:55:04.546Z,9.30
2019-04-07T00:57:32.839Z,9.40
2019-04-07T01:00:00.719Z,9.40
2019-04-07T01:02:28.629Z,9.40
2019-04-07T01:04:57.248Z,9.40
2019-04-07T01:07:25.727Z,9.40
2019-04-07T01:09:54.119Z,9.40
2019-04-07T01:12:22.539Z,9.40
2019-04-07T01:14:51.483Z,9.40
2019-04-07T01:17:20.199Z,9.40
2019-04-07T01:19:48.637Z,9.50
2019-04-07T01:22:17.063Z,9.50
2019-04-07T01:24:45.771Z,9.50
2019-04-07T01:27:13.687Z,9.50
2019-04-07T01:29:41.589Z,9.50
2019-04-07T01:32:10.195Z,9.50
2019-04-07T01:34:38.374Z,9.40
2019-04-07T01:37:07.166Z,9.40
2019-04-07T01:39:35.074Z,9.40
2019-04-07T01:42:19.066Z,9.40
2019-04-07T01:45:09.410Z,9.40
2019-04-07T01:47:52.707Z,9.40
2019-04-07T01:50:37.317Z,9.40
2019-04-07T01:53:15.313Z,9.30
2019-04-07T01:56:01.822Z,9.30
2019-04-07T01:58:50.977Z,9.40
2019-04-07T02:01:41.720Z,9.40
2019-04-07T02:04:28.084Z,9.40
2019-04-07T02:07:12.087Z,9.40
2019-04-07T02:09:58.637Z,9.30
2019-04-07T02:12:48.957Z,9.30
2019-04-07T02:15:33.162Z,9.30
2019-04-07T02:18:28.838Z,9.30
2019-04-07T02:21:03.414Z,9.30
2019-04-07T02:23:49.801Z,9.30
2019-04-07T02:26:35.704Z,9.30
2019-04-07T02:29:29.467Z,9.30
2019-04-07T02:32:25.860Z,9.30
2019-04-07T02:35:12.510Z,9.30
2019-04-07T02:37:45.844Z,9.30
2019-04-07T02:40:39.474Z,9.20
2019-04-07T02:43:33.915Z,9.20
2019-04-07T02:46:27.429Z,9.20
2019-04-07T02:49:10.801Z,9.20
2019-04-07T02:51:56.870Z,9.10
2019-04-07T02:54:59.304Z,9.00
2019-04-07T02:57:56.144Z,9.10
2019-04-07T03:00:59.275Z,9.10
2019-04-07T03:03:46.913Z,9.10
2019-04-07T03:06:44.090Z,9.20
2019-04-07T03:09:24.748Z,9.20
2019-04-07T03:12:15.028Z,9.20
2019-04-07T03:15:02.992Z,9.10
2019-04-07T03:18:00.531Z,9.10
2019-04-07T03:20:36.037Z,9.00
2019-04-07T03:23:09.945Z,9.00
2019-04-07T03:26:06.223Z,9.00
2019-04-07T03:29:04.195Z,9.00
2019-04-07T03:31:51.444Z,9.00
2019-04-07T03:34:32.848Z,9.00
2019-04-07T03:37:21.728Z,9.00
2019-04-07T03:39:52.896Z,9.00
2019-04-07T03:42:38.984Z,9.00
2019-04-07T03:45:35.826Z,9.00
2019-04-07T03:48:24.543Z,8.90
2019-04-07T03:51:12.044Z,8.90
2019-04-07T03:53:59.519Z,8.80
2019-04-07T03:56:39.346Z,8.80
2019-04-07T03:59:25.614Z,8.80
2019-04-07T04:02:31.593Z,8.80
2019-04-07T04:05:24.832Z,8.70
2019-04-07T04:08:12.177Z,8.70
2019-04-07T04:11:00.032Z,8.70
2019-04-07T04:13:47.864Z,8.60
2019-04-07T04:16:23.356Z,8.60
2019-04-07T04:18:52.541Z,8.60
2019-04-07T04:21:20.461Z,8.60
2019-04-07T04:23:48.327Z,8.50
2019-04-07T04:26:17.499Z,8.60
2019-04-07T04:28:46.208Z,8.60
2019-04-07T04:31:14.147Z,8.50
2019-04-07T04:33:42.135Z,8.50
2019-04-07T04:36:10.111Z,8.50
2019-04-07T04:38:38.513Z,8.40
2019-04-07T04:41:06.929Z,8.40
2019-04-07T04:43:35.980Z,8.50
2019-04-07T04:46:04.055Z,8.40
2019-04-07T04:48:32.237Z,8.30
2019-04-07T04:51:00.255Z,8.30
2019-04-07T04:53:28.984Z,8.30
2019-04-07T04:55:57.691Z,8.30
2019-04-07T04:58:26.033Z,8.20
2019-04-07T05:00:54.734Z,8.30
2019-04-07T05:03:22.598Z,8.20
2019-04-07T05:05:51.220Z,8.20
2019-04-07T05:08:19.182Z,8.20
2019-04-07T05:10:47.333Z,8.20
2019-04-07T05:13:15.982Z,8.30
2019-04-07T05:15:44.454Z,8.20
2019-04-07T05:18:13.043Z,8.20
2019-04-07T05:20:40.927Z,8.30
2019-04-07T05:23:08.800Z,8.30
2019-04-07T05:25:36.970Z,8.30
2019-04-07T05:28:05.869Z,8.30
2019-04-07T05:30:34.659Z,8.40
2019-04-07T05:33:03.445Z,8.50
2019-04-07T05:35:31.606Z,8.40
2019-04-07T05:38:03.510Z,8.50
2019-04-07T05:40:29.526Z,8.50
2019-04-07T05:42:57.751Z,8.50
2019-04-07T05:45:25.627Z,8.40
2019-04-07T05:47:54.264Z,8.40
2019-04-07T05:50:22.299Z,8.30
2019-04-07T05:52:50.745Z,8.30
2019-04-07T05:55:21.798Z,8.30
2019-04-07T05:57:49.660Z,8.30
2019-04-07T06:00:17.751Z,8.20
2019-04-07T06:02:47.100Z,8.20
2019-04-07T06:05:16.204Z,8.30
2019-04-07T06:07:45.968Z,8.30
2019-04-07T06:10:14.495Z,8.30
2019-04-07T06:12:46.030Z,8.30
2019-04-07T06:15:17.720Z,8.30
2019-04-07T06:17:43.814Z,8.30
2019-04-07T06:20:15.112Z,8.40
2019-04-07T06:22:42.247Z,8.40
2019-04-07T06:25:11.129Z,8.40
2019-04-07T06:27:39.359Z,8.50
2019-04-07T06:30:09.761Z,8.60
2019-04-07T06:32:38.720Z,8.50
2019-04-07T06:35:08.502Z,8.60
2019-04-07T06:37:36.458Z,8.60
2019-04-07T06:40:04.790Z,8.60
2019-04-07T06:42:34.098Z,8.60
2019-04-07T06:45:02.373Z,8.60
2019-04-07T06:47:34.499Z,8.70
2019-04-07T06:50:20.684Z,8.70
2019-04-07T06:53:18.551Z,8.80
2019-04-07T06:56:00.003Z,8.90
2019-04-07T06:58:51.480Z,9.00
2019-04-07T07:01:41.718Z,9.20
2019-04-07T07:04:35.472Z,9.30
2019-04-07T07:07:34.798Z,9.40
2019-04-07T07:10:10.637Z,9.40
2019-04-07T07:13:28.478Z,9.50
2019-04-07T07:16:10.118Z,9.60
2019-04-07T07:18:50.982Z,9.60
2019-04-07T07:21:56.788Z,9.70
2019-04-07T07:24:26.358Z,9.70
2019-04-07T07:26:57.548Z,9.70
2019-04-07T07:29:26.539Z,9.70
2019-04-07T07:31:59.721Z,9.80
2019-04-07T07:34:23.715Z,9.90
2019-04-07T07:36:53.442Z,9.90
2019-04-07T07:39:22.949Z,10.00
2019-04-07T07:41:51.985Z,10.00
2019-04-07T07:44:20.657Z,10.10
2019-04-07T07:46:58.160Z,10.20
2019-04-07T07:49:28.855Z,10.20
2019-04-07T07:51:56.022Z,10.30
2019-04-07T07:54:27.734Z,10.30
2019-04-07T07:56:53.643Z,10.40
2019-04-07T07:59:21.806Z,10.50
2019-04-07T08:01:52.250Z,10.60
2019-04-07T08:04:20.714Z,10.80
2019-04-07T08:06:48.978Z,11.00
2019-04-07T08:09:22.039Z,11.20
2019-04-07T08:11:46.569Z,11.50
2019-04-07T08:14:16.632Z,11.60
2019-04-07T08:16:44.639Z,11.80
2019-04-07T08:19:13.488Z,11.90
2019-04-07T08:21:43.667Z,11.90
2019-04-07T08:24:11.888Z,11.90
2019-04-07T08:26:40.955Z,11.90
2019-04-07T08:29:11.615Z,11.90
2019-04-07T08:31:39.359Z,11.90
2019-04-07T08:34:07.810Z,11.80
2019-04-07T08:36:35.707Z,11.90
2019-04-07T08:39:09.811Z,12.00
2019-04-07T08:41:39.677Z,12.00
2019-04-07T08:44:06.107Z,11.90
2019-04-07T08:46:39.831Z,12.10
2019-04-07T08:49:04.009Z,12.30
2019-04-07T08:51:32.611Z,12.70
2019-04-07T08:54:04.268Z,13.20
2019-04-07T08:56:31.530Z,13.50
2019-04-07T08:58:59.394Z,13.50
2019-04-07T09:01:29.605Z,13.40
2019-04-07T09:03:57.074Z,13.50
2019-04-07T09:06:25.558Z,13.40
2019-04-07T09:08:54.979Z,13.70
2019-04-07T09:11:23.671Z,14.00
2019-04-07T09:13:53.158Z,14.30
2019-04-07T09:16:40.578Z,14.40
2019-04-07T09:19:19.350Z,14.50
2019-04-07T09:22:12.824Z,14.50
2019-04-07T09:24:57.805Z,14.60
2019-04-07T09:27:46.078Z,14.70
2019-04-07T09:30:47.086Z,14.70
2019-04-07T09:33:37.460Z,14.70
2019-04-07T09:36:13.594Z,14.90
2019-04-07T09:38:59.987Z,15.00
2019-04-07T09:41:42.827Z,15.00
2019-04-07T09:44:37.727Z,15.00
2019-04-07T09:47:27.943Z,15.00
2019-04-07T09:50:09.113Z,15.00
2019-04-07T09:52:55.164Z,15.10
2019-04-07T09:55:42.274Z,15.10
2019-04-07T09:58:25.162Z,15.30
2019-04-07T10:01:10.991Z,15.30
2019-04-07T10:04:07.730Z,15.30
2019-04-07T10:06:43.372Z,15.20
2019-04-07T10:09:27.979Z,15.10
2019-04-07T10:12:12.930Z,15.00
2019-04-07T10:14:58.747Z,15.20
2019-04-07T10:17:51.846Z,15.50
2019-04-07T10:20:42.221Z,15.90
2019-04-07T10:23:30.747Z,16.20
2019-04-07T10:26:09.511Z,16.50
2019-04-07T10:29:12.148Z,16.80
2019-04-07T10:31:58.074Z,17.20
2019-04-07T10:34:52.170Z,17.50
2019-04-07T10:37:37.925Z,17.50
2019-04-07T10:40:24.430Z,17.40
2019-04-07T10:43:05.177Z,17.60
2019-04-07T10:45:50.682Z,17.80
2019-04-07T10:48:31.597Z,17.90
2019-04-07T10:51:19.753Z,18.00
2019-04-07T10:54:06.616Z,18.20
2019-04-07T10:56:52.451Z,18.30
2019-04-07T10:59:54.783Z,18.20
2019-04-07T11:02:29.443Z,18.10
2019-04-07T11:05:08.418Z,18.10
2019-04-07T11:07:58.773Z,18.20
2019-04-07T11:10:39.391Z,18.20
2019-04-07T11:13:25.633Z,18.30
2019-04-07T11:16:11.187Z,18.00
2019-04-07T11:18:57.106Z,17.90
2019-04-07T11:21:32.834Z,17.60
2019-04-07T11:24:31.292Z,17.30
2019-04-07T11:27:27.770Z,17.10
2019-04-07T11:30:01.411Z,17.00
2019-04-07T11:32:34.813Z,17.40
2019-04-07T11:35:23.276Z,17.60
2019-04-07T11:38:10.955Z,17.80
2019-04-07T11:40:57.721Z,18.00
2019-04-07T11:43:43.116Z,18.30
2019-04-07T11:46:32.988Z,18.30
2019-04-07T11:49:13.410Z,18.30
2019-04-07T11:52:14.783Z,18.40
2019-04-07T11:55:05.267Z,18.40
2019-04-07T11:58:09.708Z,18.40
2019-04-07T12:00:41.784Z,18.60
2019-04-07T12:03:26.854Z,18.40
2019-04-07T12:06:13.940Z,18.20
2019-04-07T12:09:08.463Z,18.00
2019-04-07T12:11:59.227Z,17.60
2019-04-07T12:14:52.110Z,17.20
2019-04-07T12:17:43.224Z,17.00
2019-04-07T12:20:47.155Z,16.70
2019-04-07T12:23:32.503Z,16.50
2019-04-07T12:26:28.033Z,16.30
2019-04-07T12:29:14.458Z,16.30
2019-04-07T12:31:56.530Z,16.30
2019-04-07T12:41:19.628Z,15.60
2019-04-07T12:44:02.509Z,14.50
2019-04-07T12:46:49.666Z,14.00
2019-04-07T12:49:44.385Z,13.50
2019-04-07T12:52:19.651Z,13.10
2019-04-07T12:55:13.706Z,12.90
2019-04-07T12:57:45.881Z,12.60
2019-04-07T13:00:24.728Z,12.50
2019-04-07T13:03:13.033Z,12.40
2019-04-07T13:05:59.219Z,12.40
2019-04-07T13:08:36.839Z,12.40
2019-04-07T13:11:35.625Z,12.30
2019-04-07T13:14:25.756Z,12.20
2019-04-07T13:17:21.951Z,12.00
2019-04-07T13:20:12.017Z,12.00
2019-04-07T13:23:04.930Z,11.90
2019-04-07T13:25:53.201Z,11.90
2019-04-07T13:28:28.708Z,11.80
2019-04-07T13:31:03.907Z,11.80
2019-04-07T13:33:52.217Z,11.80
2019-04-07T13:36:36.521Z,11.80
2019-04-07T13:39:26.761Z,11.90
2019-04-07T13:42:05.930Z,11.90
2019-04-07T13:45:02.549Z,11.80
2019-04-07T13:47:43.622Z,11.90
2019-04-07T13:50:24.572Z,11.90
2019-04-07T13:53:09.962Z,11.90
2019-04-07T13:55:53.596Z,11.90
2019-04-07T13:58:50.857Z,11.90
2019-04-07T14:01:36.843Z,12.00
2019-04-07T14:04:27.886Z,12.00
2019-04-07T14:07:10.020Z,12.00
2019-04-07T14:10:04.364Z,12.10
2019-04-07T14:12:50.611Z,12.10
2019-04-07T14:15:24.826Z,12.20
2019-04-07T14:18:10.156Z,12.30
2019-04-07T14:21:00.690Z,12.30
2019-04-07T14:23:43.455Z,12.30
2019-04-07T14:26:43.415Z,12.40
2019-04-07T14:29:31.657Z,12.50
2019-04-07T14:32:28.475Z,12.50
2019-04-07T14:35:14.187Z,12.60
2019-04-07T14:37:55.677Z,12.70
2019-04-07T14:40:31.170Z,12.70
2019-04-07T14:43:27.398Z,12.80
2019-04-07T14:46:04.768Z,12.80
2019-04-07T14:49:04.427Z,12.90
2019-04-07T14:51:52.414Z,13.00
2019-04-07T14:54:38.016Z,13.00
2019-04-07T14:57:35.123Z,13.10
2019-04-07T15:00:25.567Z,13.10
2019-04-07T15:02:51.814Z,13.20
2019-04-07T15:05:25.428Z,13.40
2019-04-07T15:08:08.610Z,13.30
2019-04-07T15:10:50.170Z,13.40
2019-04-07T15:13:23.920Z,13.50
2019-04-07T15:15:51.666Z,13.50
2019-04-07T15:18:21.441Z,13.60
2019-04-07T15:20:50.549Z,13.70
2019-04-07T15:23:18.719Z,13.80
2019-04-07T15:25:47.302Z,14.00
2019-04-07T15:28:15.806Z,14.10
2019-04-07T15:30:47.146Z,14.20
2019-04-07T15:33:13.688Z,14.30
2019-04-07T15:35:45.058Z,14.40
2019-04-07T15:38:11.366Z,14.50
2019-04-07T15:40:39.706Z,14.60
2019-04-07T15:43:10.045Z,14.60
2019-04-07T15:45:37.324Z,14.60
2019-04-07T15:48:05.816Z,14.60
2019-04-07T15:50:34.335Z,14.60
2019-04-07T15:53:02.811Z,14.60
2019-04-07T15:55:44.364Z,14.50
2019-04-07T15:58:00.394Z,14.50
2019-04-07T16:00:28.382Z,14.40
2019-04-07T16:02:56.473Z,14.30
2019-04-07T16:05:24.446Z,14.30
2019-04-07T16:07:54.398Z,14.30
2019-04-07T16:10:23.589Z,14.20
2019-04-07T16:12:53.720Z,14.10
2019-04-07T16:15:21.513Z,14.10
2019-04-07T16:17:50.347Z,14.10
2019-04-07T16:20:24.555Z,14.00
2019-04-07T16:22:50.470Z,14.00
2019-04-07T16:25:18.435Z,13.90
2019-04-07T16:27:47.455Z,13.90
2019-04-07T16:30:17.992Z,14.00
2019-04-07T16:32:45.729Z,13.90
2019-04-07T16:35:16.209Z,13.90
2019-04-07T16:37:43.763Z,13.90
2019-04-07T16:40:13.029Z,14.00
2019-04-07T16:42:45.607Z,14.00
2019-04-07T16:45:15.425Z,14.10
2019-04-07T16:47:42.016Z,14.10
2019-04-07T16:50:12.162Z,14.20
2019-04-07T16:52:40.049Z,14.30
2019-04-07T16:55:32.694Z,14.30
2019-04-07T16:58:02.023Z,14.40
2019-04-07T17:00:30.258Z,14.30
2019-04-07T17:02:58.267Z,14.30
2019-04-07T17:05:26.125Z,14.40
2019-04-07T17:07:56.556Z,14.40
2019-04-07T17:10:26.131Z,14.40
2019-04-07T17:12:53.372Z,14.30
2019-04-07T17:15:21.370Z,14.30
2019-04-07T17:17:52.481Z,14.30
2019-04-07T17:20:20.028Z,14.20
2019-04-07T17:22:49.215Z,14.20
2019-04-07T17:25:17.327Z,14.20
2019-04-07T17:27:45.386Z,14.20
2019-04-07T17:30:16.756Z,14.10
2019-04-07T17:32:45.782Z,14.10
2019-04-07T17:35:17.476Z,14.10
2019-04-07T17:37:46.196Z,14.00
2019-04-07T17:40:15.926Z,13.90
2019-04-07T17:42:44.027Z,13.90
2019-04-07T17:45:35.874Z,13.90
2019-04-07T17:48:37.359Z,13.80
2019-04-07T17:51:21.840Z,13.70
2019-04-07T17:54:17.422Z,13.60
2019-04-07T17:56:52.807Z,13.50
2019-04-07T17:59:38.922Z,13.40
2019-04-07T18:02:31.424Z,13.40
2019-04-07T18:05:22.138Z,13.30
2019-04-07T18:08:10.254Z,13.30
2019-04-07T18:10:57.090Z,13.20
2019-04-07T18:13:49.882Z,13.10
2019-04-07T18:16:39.638Z,13.00
2019-04-07T18:19:34.838Z,12.90
2019-04-07T18:22:20.472Z,12.80
2019-04-07T18:25:08.757Z,12.60
2019-04-07T18:27:45.146Z,12.50
2019-04-07T18:30:42.919Z,12.30
2019-04-07T18:33:22.547Z,12.30
2019-04-07T18:36:03.306Z,12.10
2019-04-07T18:39:04.553Z,11.80
2019-04-07T18:41:53.807Z,11.80
2019-04-07T18:44:41.391Z,11.80
2019-04-07T18:47:41.614Z,11.80
2019-04-07T18:50:31.339Z,11.80
2019-04-07T18:53:30.755Z,11.70
2019-04-07T18:56:11.681Z,11.60
2019-04-07T18:58:59.161Z,11.70
2019-04-07T19:01:45.770Z,11.80
2019-04-07T19:04:35.852Z,11.80
2019-04-07T19:07:41.779Z,11.90
2019-04-07T19:10:32.402Z,11.90
2019-04-07T19:13:35.768Z,11.90
2019-04-07T19:16:32.405Z,11.90
2019-04-07T19:19:23.522Z,11.80
2019-04-07T19:22:21.248Z,11.80
2019-04-07T19:25:13.113Z,11.60
2019-04-07T19:28:03.421Z,11.60
2019-04-07T19:30:51.099Z,11.50
2019-04-07T19:33:47.747Z,11.40
2019-04-07T19:36:31.767Z,11.30
2019-04-07T19:39:18.728Z,11.30
2019-04-07T19:42:12.383Z,11.30
2019-04-07T19:45:06.977Z,11.30
2019-04-07T19:48:01.952Z,11.20
2019-04-07T19:50:41.302Z,11.20
2019-04-07T19:53:32.531Z,11.20
2019-04-07T19:56:25.479Z,11.10
2019-04-07T19:59:11.458Z,11.10
2019-04-07T20:01:58.194Z,11.00
2019-04-07T20:04:59.291Z,11.00
2019-04-07T20:07:46.201Z,11.00
2019-04-07T20:10:22.110Z,10.90
2019-04-07T20:13:09.110Z,10.80
2019-04-07T20:15:47.077Z,10.70
2019-04-07T20:18:37.432Z,10.60
2019-04-07T20:21:37.392Z,10.60
2019-04-07T20:24:28.211Z,10.60
2019-04-07T20:27:17.567Z,10.50
2019-04-07T20:30:06.177Z,10.50
2019-04-07T20:32:40.088Z,10.40
2019-04-07T20:35:32.783Z,10.40
2019-04-07T20:38:19.258Z,10.30
2019-04-07T20:41:25.175Z,10.20
2019-04-07T20:44:32.565Z,10.10
2019-04-07T20:47:22.972Z,10.10
2019-04-07T20:50:14.323Z,9.90
2019-04-07T20:53:15.376Z,9.90
2019-04-07T20:55:54.439Z,9.80
2019-04-07T20:58:47.368Z,9.80
2019-04-07T21:01:42.920Z,9.70
2019-04-07T21:04:28.146Z,9.60
2019-04-07T21:07:14.194Z,9.50
2019-04-07T21:09:59.882Z,9.60
2019-04-07T21:12:50.654Z,9.50
2019-04-07T21:15:37.285Z,9.50
2019-04-07T21:18:31.347Z,9.50
2019-04-07T21:21:19.330Z,9.50
2019-04-07T21:24:02.307Z,9.40
2019-04-07T21:26:35.972Z,9.30
2019-04-07T21:29:26.199Z,9.20
2019-04-07T21:32:08.423Z,9.10
2019-04-07T21:34:53.561Z,9.10
2019-04-07T21:37:50.223Z,9.10
2019-04-07T21:40:30.447Z,8.90
2019-04-07T21:43:16.841Z,8.90
2019-04-07T21:46:15.260Z,8.90
2019-04-07T21:49:09.712Z,8.90
2019-04-07T21:51:46.629Z,8.70
2019-04-07T21:54:24.212Z,8.60
2019-04-07T21:57:20.175Z,8.70
2019-04-07T22:00:06.222Z,8.70
2019-04-07T22:03:08.786Z,8.50
2019-04-07T22:05:57.120Z,8.40
2019-04-07T22:08:28.471Z,8.30
2019-04-07T22:10:57.298Z,8.20
2019-04-07T22:13:25.824Z,8.20
2019-04-07T22:15:57.938Z,8.10
2019-04-07T22:18:23.691Z,8.10
2019-04-07T22:20:54.511Z,8.00
2019-04-07T22:23:21.599Z,8.00
2019-04-07T22:25:54.031Z,8.00
2019-04-07T22:28:22.822Z,8.10
2019-04-07T22:30:52.682Z,8.00
2019-04-07T22:33:25.149Z,7.90
2019-04-07T22:35:51.266Z,8.00
2019-04-07T22:38:22.045Z,7.80
2019-04-07T22:40:49.926Z,7.80
2019-04-07T22:43:18.889Z,7.70
2019-04-07T22:45:54.926Z,7.70
2019-04-07T22:48:18.443Z,7.70
2019-04-07T22:50:47.480Z,7.60
2019-04-07T22:53:15.385Z,7.60
2019-04-07T22:55:43.311Z,7.60
2019-04-07T22:58:11.811Z,7.50
2019-04-07T23:00:40.332Z,7.40
2019-04-07T23:03:08.539Z,7.40
2019-04-07T23:05:37.366Z,7.40
2019-04-07T23:08:05.563Z,7.30
2019-04-07T23:10:33.694Z,7.40
2019-04-07T23:13:01.680Z,7.40
2019-04-07T23:15:38.655Z,7.40
2019-04-07T23:17:59.828Z,7.50
2019-04-07T23:20:29.012Z,7.50
2019-04-07T23:22:57.027Z,7.50
2019-04-07T23:25:25.935Z,7.50
2019-04-07T23:27:54.291Z,7.40
2019-04-07T23:30:25.692Z,7.20
2019-04-07T23:32:53.656Z,7.10
2019-04-07T23:35:22.192Z,7.00
2019-04-07T23:37:50.892Z,7.00
2019-04-07T23:40:18.984Z,7.00
2019-04-07T23:42:46.853Z,7.00
2019-04-07T23:45:14.959Z,7.10
2019-04-07T23:47:42.834Z,7.00
2019-04-07T23:50:11.349Z,6.90
2019-04-07T23:52:39.223Z,7.00
2019-04-07T23:55:07.139Z,6.90
2019-04-07T23:57:36.031Z,6.90
